sensor_id;sensor_type;location;lat;lon;timestamp;temperature;humidity
8188;DHT22;4135;49.184;9.722;2023-04-24T00:00:38;21.20;51.10
8188;DHT22;4135;49.184;9.722;2023-04-24T00:03:10;21.20;51.10
8188;DHT22;4135;49.184;9.722;2023-04-24T00:05:40;21.20;51.10
8188;DHT22;4135;49.184;9.722;2023-04-24T00:08:10;21.30;51.20
8188;DHT22;4135;49.184;9.722;2023-04-24T00:10:39;21.20;51.10
8188;DHT22;4135;49.184;9.722;2023-04-24T00:13:10;21.20;51.10
8188;DHT22;4135;49.184;9.722;2023-04-24T00:15:40;21.20;51.10
8188;DHT22;4135;49.184;9.722;2023-04-24T00:18:10;21.20;51.10
8188;DHT22;4135;49.184;9.722;2023-04-24T00:20:39;21.20;51.10
8188;DHT22;4135;49.184;9.722;2023-04-24T00:23:09;21.20;51.10
8188;DHT22;4135;49.184;9.722;2023-04-24T00:25:38;21.20;51.10
8188;DHT22;4135;49.184;9.722;2023-04-24T00:28:09;21.20;51.10
8188;DHT22;4135;49.184;9.722;2023-04-24T00:30:38;21.20;51.10
8188;DHT22;4135;49.184;9.722;2023-04-24T00:33:09;21.20;51.10
8188;DHT22;4135;49.184;9.722;2023-04-24T00:35:38;21.20;51.10
8188;DHT22;4135;49.184;9.722;2023-04-24T00:38:08;21.20;51.10
8188;DHT22;4135;49.184;9.722;2023-04-24T00:40:37;21.20;51.10
8188;DHT22;4135;49.184;9.722;2023-04-24T00:43:07;21.20;51.10
8188;DHT22;4135;49.184;9.722;2023-04-24T00:45:37;21.20;51.10
8188;DHT22;4135;49.184;9.722;2023-04-24T00:48:06;21.20;51.10
8188;DHT22;4135;49.184;9.722;2023-04-24T00:50:36;21.20;51.10
8188;DHT22;4135;49.184;9.722;2023-04-24T00:53:07;21.20;51.10
8188;DHT22;4135;49.184;9.722;2023-04-24T00:55:36;21.10;51.00
8188;DHT22;4135;49.184;9.722;2023-04-24T00:58:06;21.10;51.00
8188;DHT22;4135;49.184;9.722;2023-04-24T01:00:36;21.20;51.10
8188;DHT22;4135;49.184;9.722;2023-04-24T01:03:06;21.20;51.10
8188;DHT22;4135;49.184;9.722;2023-04-24T01:05:36;21.20;51.10
8188;DHT22;4135;49.184;9.722;2023-04-24T01:08:06;21.20;51.10
8188;DHT22;4135;49.184;9.722;2023-04-24T01:10:36;21.20;51.10
8188;DHT22;4135;49.184;9.722;2023-04-24T01:13:10;21.20;51.10
8188;DHT22;4135;49.184;9.722;2023-04-24T01:15:40;21.20;51.70
8188;DHT22;4135;49.184;9.722;2023-04-24T01:18:09;21.20;51.10
8188;DHT22;4135;49.184;9.722;2023-04-24T01:20:43;21.20;51.10
8188;DHT22;4135;49.184;9.722;2023-04-24T01:23:14;21.20;51.10
8188;DHT22;4135;49.184;9.722;2023-04-24T01:25:44;21.10;51.00
8188;DHT22;4135;49.184;9.722;2023-04-24T01:28:15;21.20;51.10
8188;DHT22;4135;49.184;9.722;2023-04-24T01:30:45;21.10;51.00
8188;DHT22;4135;49.184;9.722;2023-04-24T01:33:14;21.10;51.00
8188;DHT22;4135;49.184;9.722;2023-04-24T01:35:44;21.10;51.00
8188;DHT22;4135;49.184;9.722;2023-04-24T01:38:14;21.20;51.10
8188;DHT22;4135;49.184;9.722;2023-04-24T01:40:44;21.10;51.00
8188;DHT22;4135;49.184;9.722;2023-04-24T01:43:14;21.10;51.00
8188;DHT22;4135;49.184;9.722;2023-04-24T01:45:44;21.10;51.00
8188;DHT22;4135;49.184;9.722;2023-04-24T01:48:13;21.10;51.00
8188;DHT22;4135;49.184;9.722;2023-04-24T01:50:43;21.10;51.00
8188;DHT22;4135;49.184;9.722;2023-04-24T01:53:12;21.10;51.00
8188;DHT22;4135;49.184;9.722;2023-04-24T01:55:42;21.10;51.00
8188;DHT22;4135;49.184;9.722;2023-04-24T01:58:12;21.10;51.60
8188;DHT22;4135;49.184;9.722;2023-04-24T02:00:41;21.10;51.00
8188;DHT22;4135;49.184;9.722;2023-04-24T02:03:11;21.10;51.00
8188;DHT22;4135;49.184;9.722;2023-04-24T02:05:43;21.10;51.00
8188;DHT22;4135;49.184;9.722;2023-04-24T02:08:13;21.10;51.00
8188;DHT22;4135;49.184;9.722;2023-04-24T02:10:43;21.20;51.10
8188;DHT22;4135;49.184;9.722;2023-04-24T02:13:12;21.10;51.00
8188;DHT22;4135;49.184;9.722;2023-04-24T02:15:42;21.10;51.00
8188;DHT22;4135;49.184;9.722;2023-04-24T02:18:11;21.10;51.00
8188;DHT22;4135;49.184;9.722;2023-04-24T02:20:42;21.20;51.10
8188;DHT22;4135;49.184;9.722;2023-04-24T02:23:11;21.20;51.10
8188;DHT22;4135;49.184;9.722;2023-04-24T02:25:42;21.20;51.10
8188;DHT22;4135;49.184;9.722;2023-04-24T02:28:12;21.10;51.00
8188;DHT22;4135;49.184;9.722;2023-04-24T02:30:41;21.20;51.10
8188;DHT22;4135;49.184;9.722;2023-04-24T02:33:11;21.20;51.00
8188;DHT22;4135;49.184;9.722;2023-04-24T02:35:41;21.20;51.00
8188;DHT22;4135;49.184;9.722;2023-04-24T02:38:10;21.20;51.00
8188;DHT22;4135;49.184;9.722;2023-04-24T02:40:40;21.20;51.10
8188;DHT22;4135;49.184;9.722;2023-04-24T02:43:09;21.10;51.00
8188;DHT22;4135;49.184;9.722;2023-04-24T02:45:39;21.10;51.00
8188;DHT22;4135;49.184;9.722;2023-04-24T02:48:08;21.10;51.00
8188;DHT22;4135;49.184;9.722;2023-04-24T02:50:38;21.10;51.00
8188;DHT22;4135;49.184;9.722;2023-04-24T02:53:08;21.20;51.00
8188;DHT22;4135;49.184;9.722;2023-04-24T02:55:37;21.10;51.00
8188;DHT22;4135;49.184;9.722;2023-04-24T02:58:07;21.10;50.90
8188;DHT22;4135;49.184;9.722;2023-04-24T03:00:36;21.10;51.00
8188;DHT22;4135;49.184;9.722;2023-04-24T03:03:06;21.10;50.90
8188;DHT22;4135;49.184;9.722;2023-04-24T03:05:36;21.10;50.90
8188;DHT22;4135;49.184;9.722;2023-04-24T03:08:05;21.10;50.90
8188;DHT22;4135;49.184;9.722;2023-04-24T03:10:35;21.10;50.90
8188;DHT22;4135;49.184;9.722;2023-04-24T03:13:05;21.10;50.90
8188;DHT22;4135;49.184;9.722;2023-04-24T03:15:34;21.10;50.90
8188;DHT22;4135;49.184;9.722;2023-04-24T03:18:04;21.10;50.90
8188;DHT22;4135;49.184;9.722;2023-04-24T03:20:33;21.10;50.90
8188;DHT22;4135;49.184;9.722;2023-04-24T03:23:03;21.10;50.80
8188;DHT22;4135;49.184;9.722;2023-04-24T03:25:33;21.10;50.80
8188;DHT22;4135;49.184;9.722;2023-04-24T03:28:02;21.10;50.90
8188;DHT22;4135;49.184;9.722;2023-04-24T03:30:32;21.10;50.90
8188;DHT22;4135;49.184;9.722;2023-04-24T03:33:01;21.10;50.80
8188;DHT22;4135;49.184;9.722;2023-04-24T03:35:31;21.10;50.80
8188;DHT22;4135;49.184;9.722;2023-04-24T03:38:00;21.10;50.80
8188;DHT22;4135;49.184;9.722;2023-04-24T03:40:30;21.10;50.80
8188;DHT22;4135;49.184;9.722;2023-04-24T03:42:59;21.10;50.80
8188;DHT22;4135;49.184;9.722;2023-04-24T03:45:29;21.10;50.80
8188;DHT22;4135;49.184;9.722;2023-04-24T03:47:58;21.10;50.80
8188;DHT22;4135;49.184;9.722;2023-04-24T03:50:28;21.10;50.80
8188;DHT22;4135;49.184;9.722;2023-04-24T03:52:58;21.10;50.80
8188;DHT22;4135;49.184;9.722;2023-04-24T03:55:28;21.20;50.90
8188;DHT22;4135;49.184;9.722;2023-04-24T03:57:57;21.10;50.80
8188;DHT22;4135;49.184;9.722;2023-04-24T04:00:27;21.10;50.80
8188;DHT22;4135;49.184;9.722;2023-04-24T04:02:57;21.10;50.80
8188;DHT22;4135;49.184;9.722;2023-04-24T04:05:26;21.10;50.70
8188;DHT22;4135;49.184;9.722;2023-04-24T04:07:56;21.10;50.70
8188;DHT22;4135;49.184;9.722;2023-04-24T04:10:25;21.10;50.70
8188;DHT22;4135;49.184;9.722;2023-04-24T04:12:55;21.10;50.70
8188;DHT22;4135;49.184;9.722;2023-04-24T04:15:24;21.10;50.70
8188;DHT22;4135;49.184;9.722;2023-04-24T04:17:54;21.20;50.80
8188;DHT22;4135;49.184;9.722;2023-04-24T04:20:23;21.20;50.80
8188;DHT22;4135;49.184;9.722;2023-04-24T04:22:53;21.10;50.80
8188;DHT22;4135;49.184;9.722;2023-04-24T04:25:23;21.10;50.80
8188;DHT22;4135;49.184;9.722;2023-04-24T04:27:52;21.10;50.70
8188;DHT22;4135;49.184;9.722;2023-04-24T04:30:23;21.10;50.80
8188;DHT22;4135;49.184;9.722;2023-04-24T04:32:52;21.20;50.80
8188;DHT22;4135;49.184;9.722;2023-04-24T04:35:22;21.10;50.80
8188;DHT22;4135;49.184;9.722;2023-04-24T04:37:51;21.10;50.80
8188;DHT22;4135;49.184;9.722;2023-04-24T04:40:22;21.10;50.70
8188;DHT22;4135;49.184;9.722;2023-04-24T04:42:51;21.20;50.90
8188;DHT22;4135;49.184;9.722;2023-04-24T04:45:22;21.20;50.80
8188;DHT22;4135;49.184;9.722;2023-04-24T04:47:53;21.20;50.80
8188;DHT22;4135;49.184;9.722;2023-04-24T04:50:24;21.10;50.80
8188;DHT22;4135;49.184;9.722;2023-04-24T04:52:53;21.10;50.80
8188;DHT22;4135;49.184;9.722;2023-04-24T04:55:23;21.10;50.80
8188;DHT22;4135;49.184;9.722;2023-04-24T04:57:53;21.10;50.80
8188;DHT22;4135;49.184;9.722;2023-04-24T05:00:23;21.10;50.80
8188;DHT22;4135;49.184;9.722;2023-04-24T05:02:55;21.10;50.90
8188;DHT22;4135;49.184;9.722;2023-04-24T05:05:24;21.10;50.90
8188;DHT22;4135;49.184;9.722;2023-04-24T05:07:54;21.10;50.90
8188;DHT22;4135;49.184;9.722;2023-04-24T05:10:23;21.10;50.90
8188;DHT22;4135;49.184;9.722;2023-04-24T05:12:53;21.10;50.90
8188;DHT22;4135;49.184;9.722;2023-04-24T05:15:23;21.10;50.90
8188;DHT22;4135;49.184;9.722;2023-04-24T05:17:52;21.10;50.80
8188;DHT22;4135;49.184;9.722;2023-04-24T05:20:22;21.10;50.80
8188;DHT22;4135;49.184;9.722;2023-04-24T05:22:51;21.10;50.90
8188;DHT22;4135;49.184;9.722;2023-04-24T05:25:21;21.10;50.80
8188;DHT22;4135;49.184;9.722;2023-04-24T05:27:50;21.10;50.80
8188;DHT22;4135;49.184;9.722;2023-04-24T05:30:20;21.10;50.80
8188;DHT22;4135;49.184;9.722;2023-04-24T05:32:49;21.10;50.80
8188;DHT22;4135;49.184;9.722;2023-04-24T05:35:19;21.10;50.80
8188;DHT22;4135;49.184;9.722;2023-04-24T05:37:48;21.10;50.80
8188;DHT22;4135;49.184;9.722;2023-04-24T05:40:18;21.10;50.90
8188;DHT22;4135;49.184;9.722;2023-04-24T05:42:47;21.10;51.00
8188;DHT22;4135;49.184;9.722;2023-04-24T05:45:17;21.10;51.00
8188;DHT22;4135;49.184;9.722;2023-04-24T05:47:46;21.10;51.10
8188;DHT22;4135;49.184;9.722;2023-04-24T05:50:16;21.10;51.10
8188;DHT22;4135;49.184;9.722;2023-04-24T05:52:45;21.10;51.10
8188;DHT22;4135;49.184;9.722;2023-04-24T05:55:15;21.00;51.00
8188;DHT22;4135;49.184;9.722;2023-04-24T05:57:47;21.10;51.20
8188;DHT22;4135;49.184;9.722;2023-04-24T06:00:17;21.10;51.20
8188;DHT22;4135;49.184;9.722;2023-04-24T06:02:49;21.10;51.20
8188;DHT22;4135;49.184;9.722;2023-04-24T06:05:18;21.10;51.20
8188;DHT22;4135;49.184;9.722;2023-04-24T06:07:48;21.10;51.20
8188;DHT22;4135;49.184;9.722;2023-04-24T06:10:17;21.10;51.20
8188;DHT22;4135;49.184;9.722;2023-04-24T06:12:47;21.10;51.30
8188;DHT22;4135;49.184;9.722;2023-04-24T06:15:16;21.00;51.20
8188;DHT22;4135;49.184;9.722;2023-04-24T06:17:46;21.10;51.20
8188;DHT22;4135;49.184;9.722;2023-04-24T06:20:15;21.10;51.30
8188;DHT22;4135;49.184;9.722;2023-04-24T06:22:45;21.10;51.30
8188;DHT22;4135;49.184;9.722;2023-04-24T06:25:14;21.10;51.20
8188;DHT22;4135;49.184;9.722;2023-04-24T06:27:44;21.10;51.30
8188;DHT22;4135;49.184;9.722;2023-04-24T06:30:13;21.10;51.30
8188;DHT22;4135;49.184;9.722;2023-04-24T06:32:43;21.10;51.30
8188;DHT22;4135;49.184;9.722;2023-04-24T06:35:13;21.00;51.20
8188;DHT22;4135;49.184;9.722;2023-04-24T06:37:43;21.00;51.20
8188;DHT22;4135;49.184;9.722;2023-04-24T06:40:12;21.00;51.20
8188;DHT22;4135;49.184;9.722;2023-04-24T06:42:42;21.10;51.20
8188;DHT22;4135;49.184;9.722;2023-04-24T06:45:11;21.10;51.20
8188;DHT22;4135;49.184;9.722;2023-04-24T06:47:41;21.10;51.30
8188;DHT22;4135;49.184;9.722;2023-04-24T06:50:11;21.10;51.30
8188;DHT22;4135;49.184;9.722;2023-04-24T06:52:41;21.10;51.30
8188;DHT22;4135;49.184;9.722;2023-04-24T06:55:10;21.10;51.30
8188;DHT22;4135;49.184;9.722;2023-04-24T06:57:40;21.10;51.30
8188;DHT22;4135;49.184;9.722;2023-04-24T07:00:10;21.10;51.90
8188;DHT22;4135;49.184;9.722;2023-04-24T07:02:40;21.10;51.30
8188;DHT22;4135;49.184;9.722;2023-04-24T07:05:10;21.10;51.90
8188;DHT22;4135;49.184;9.722;2023-04-24T07:07:40;21.10;51.30
8188;DHT22;4135;49.184;9.722;2023-04-24T07:10:09;21.10;51.40
8188;DHT22;4135;49.184;9.722;2023-04-24T07:12:39;21.10;51.40
8188;DHT22;4135;49.184;9.722;2023-04-24T07:15:09;21.10;51.40
8188;DHT22;4135;49.184;9.722;2023-04-24T07:17:38;21.10;51.50
8188;DHT22;4135;49.184;9.722;2023-04-24T07:20:12;21.00;51.20
8188;DHT22;4135;49.184;9.722;2023-04-24T07:22:43;21.00;51.30
8188;DHT22;4135;49.184;9.722;2023-04-24T07:25:13;21.00;51.30
8188;DHT22;4135;49.184;9.722;2023-04-24T07:27:42;21.00;51.30
8188;DHT22;4135;49.184;9.722;2023-04-24T07:30:12;21.00;51.30
8188;DHT22;4135;49.184;9.722;2023-04-24T07:32:42;21.10;51.30
8188;DHT22;4135;49.184;9.722;2023-04-24T07:35:11;21.00;51.20
8188;DHT22;4135;49.184;9.722;2023-04-24T07:37:41;21.00;51.20
8188;DHT22;4135;49.184;9.722;2023-04-24T07:40:15;21.00;51.20
8188;DHT22;4135;49.184;9.722;2023-04-24T07:42:45;21.00;51.20
8188;DHT22;4135;49.184;9.722;2023-04-24T07:45:15;21.00;51.10
8188;DHT22;4135;49.184;9.722;2023-04-24T07:47:44;21.00;51.10
8188;DHT22;4135;49.184;9.722;2023-04-24T07:50:15;21.00;51.10
8188;DHT22;4135;49.184;9.722;2023-04-24T07:52:44;21.00;51.10
8188;DHT22;4135;49.184;9.722;2023-04-24T07:55:14;21.00;51.00
8188;DHT22;4135;49.184;9.722;2023-04-24T07:57:43;21.10;51.10
8188;DHT22;4135;49.184;9.722;2023-04-24T08:00:13;21.00;51.00
8188;DHT22;4135;49.184;9.722;2023-04-24T08:02:43;21.00;51.00
8188;DHT22;4135;49.184;9.722;2023-04-24T08:05:12;21.00;51.00
8188;DHT22;4135;49.184;9.722;2023-04-24T08:07:42;21.00;50.90
8188;DHT22;4135;49.184;9.722;2023-04-24T08:10:11;21.00;50.90
8188;DHT22;4135;49.184;9.722;2023-04-24T08:12:41;21.30;51.20
8188;DHT22;4135;49.184;9.722;2023-04-24T08:15:11;21.00;50.90
8188;DHT22;4135;49.184;9.722;2023-04-24T08:17:40;21.00;50.90
8188;DHT22;4135;49.184;9.722;2023-04-24T08:20:11;21.00;50.90
8188;DHT22;4135;49.184;9.722;2023-04-24T08:22:43;21.00;50.80
8188;DHT22;4135;49.184;9.722;2023-04-24T08:25:13;21.00;50.80
8188;DHT22;4135;49.184;9.722;2023-04-24T08:27:42;21.00;50.80
8188;DHT22;4135;49.184;9.722;2023-04-24T08:30:12;21.00;50.80
8188;DHT22;4135;49.184;9.722;2023-04-24T08:32:42;21.10;50.80
8188;DHT22;4135;49.184;9.722;2023-04-24T08:35:12;21.00;50.70
8188;DHT22;4135;49.184;9.722;2023-04-24T08:37:41;21.00;50.60
8188;DHT22;4135;49.184;9.722;2023-04-24T08:40:15;21.00;50.60
8188;DHT22;4135;49.184;9.722;2023-04-24T08:42:45;21.00;50.60
8188;DHT22;4135;49.184;9.722;2023-04-24T08:45:14;21.00;50.60
8188;DHT22;4135;49.184;9.722;2023-04-24T08:47:45;21.00;50.60
8188;DHT22;4135;49.184;9.722;2023-04-24T08:50:14;21.00;50.50
8188;DHT22;4135;49.184;9.722;2023-04-24T08:52:45;21.00;50.50
8188;DHT22;4135;49.184;9.722;2023-04-24T08:55:15;21.10;50.50
8188;DHT22;4135;49.184;9.722;2023-04-24T08:57:52;21.00;50.40
8188;DHT22;4135;49.184;9.722;2023-04-24T09:00:22;21.00;50.30
8188;DHT22;4135;49.184;9.722;2023-04-24T09:02:53;21.00;50.30
8188;DHT22;4135;49.184;9.722;2023-04-24T09:05:23;21.00;50.30
8188;DHT22;4135;49.184;9.722;2023-04-24T09:07:56;21.00;50.20
8188;DHT22;4135;49.184;9.722;2023-04-24T09:10:26;21.00;50.20
8188;DHT22;4135;49.184;9.722;2023-04-24T09:12:56;21.00;50.10
8188;DHT22;4135;49.184;9.722;2023-04-24T09:15:28;21.00;50.10
8188;DHT22;4135;49.184;9.722;2023-04-24T09:17:58;21.00;50.10
8188;DHT22;4135;49.184;9.722;2023-04-24T09:20:28;21.00;50.10
8188;DHT22;4135;49.184;9.722;2023-04-24T09:22:58;21.00;50.00
8188;DHT22;4135;49.184;9.722;2023-04-24T09:25:32;21.10;50.10
8188;DHT22;4135;49.184;9.722;2023-04-24T09:28:04;21.00;50.00
8188;DHT22;4135;49.184;9.722;2023-04-24T09:30:33;21.00;50.00
8188;DHT22;4135;49.184;9.722;2023-04-24T09:33:15;21.00;50.00
8188;DHT22;4135;49.184;9.722;2023-04-24T09:35:50;21.00;49.90
8188;DHT22;4135;49.184;9.722;2023-04-24T09:38:31;21.00;49.90
8188;DHT22;4135;49.184;9.722;2023-04-24T09:41:06;21.00;50.00
8188;DHT22;4135;49.184;9.722;2023-04-24T09:43:35;21.00;50.00
8188;DHT22;4135;49.184;9.722;2023-04-24T09:46:07;21.10;50.20
8188;DHT22;4135;49.184;9.722;2023-04-24T09:48:38;21.00;50.10
8188;DHT22;4135;49.184;9.722;2023-04-24T09:51:07;21.10;50.20
8188;DHT22;4135;49.184;9.722;2023-04-24T09:53:39;21.10;50.20
8188;DHT22;4135;49.184;9.722;2023-04-24T09:56:10;21.10;50.30
8188;DHT22;4135;49.184;9.722;2023-04-24T09:58:41;21.10;50.20
8188;DHT22;4135;49.184;9.722;2023-04-24T10:01:11;21.10;50.30
8188;DHT22;4135;49.184;9.722;2023-04-24T10:03:42;21.10;50.30
8188;DHT22;4135;49.184;9.722;2023-04-24T10:06:12;21.10;50.30
8188;DHT22;4135;49.184;9.722;2023-04-24T10:08:42;21.10;50.30
8188;DHT22;4135;49.184;9.722;2023-04-24T10:11:12;21.10;50.30
8188;DHT22;4135;49.184;9.722;2023-04-24T10:13:43;21.10;50.40
8188;DHT22;4135;49.184;9.722;2023-04-24T10:16:13;21.10;50.40
8188;DHT22;4135;49.184;9.722;2023-04-24T10:18:43;21.10;50.50
8188;DHT22;4135;49.184;9.722;2023-04-24T10:21:13;21.10;50.50
8188;DHT22;4135;49.184;9.722;2023-04-24T10:23:44;21.10;50.40
8188;DHT22;4135;49.184;9.722;2023-04-24T10:26:16;21.10;50.40
8188;DHT22;4135;49.184;9.722;2023-04-24T10:28:47;21.10;50.50
8188;DHT22;4135;49.184;9.722;2023-04-24T10:31:17;21.10;50.40
8188;DHT22;4135;49.184;9.722;2023-04-24T10:33:47;21.10;50.40
8188;DHT22;4135;49.184;9.722;2023-04-24T10:36:22;21.10;50.40
8188;DHT22;4135;49.184;9.722;2023-04-24T10:38:54;21.10;50.30
8188;DHT22;4135;49.184;9.722;2023-04-24T10:41:26;21.10;50.30
8188;DHT22;4135;49.184;9.722;2023-04-24T10:44:12;21.00;50.10
8188;DHT22;4135;49.184;9.722;2023-04-24T10:46:44;20.70;49.30
8188;DHT22;4135;49.184;9.722;2023-04-24T10:49:14;20.50;48.70
8188;DHT22;4135;49.184;9.722;2023-04-24T10:51:45;20.50;48.90
8188;DHT22;4135;49.184;9.722;2023-04-24T10:59:51;20.80;48.80
8188;DHT22;4135;49.184;9.722;2023-04-24T11:02:36;20.80;48.70
8188;DHT22;4135;49.184;9.722;2023-04-24T11:05:06;20.80;48.70
8188;DHT22;4135;49.184;9.722;2023-04-24T11:08:11;20.80;48.70
8188;DHT22;4135;49.184;9.722;2023-04-24T11:11:01;20.90;48.80
8188;DHT22;4135;49.184;9.722;2023-04-24T11:14:07;20.90;48.90
8188;DHT22;4135;49.184;9.722;2023-04-24T11:16:44;20.90;48.90
8188;DHT22;4135;49.184;9.722;2023-04-24T11:22:04;20.90;49.00
8188;DHT22;4135;49.184;9.722;2023-04-24T11:27:17;20.80;48.80
8188;DHT22;4135;49.184;9.722;2023-04-24T11:32:29;20.60;48.10
8188;DHT22;4135;49.184;9.722;2023-04-24T11:37:39;20.40;47.60
8188;DHT22;4135;49.184;9.722;2023-04-24T11:40:11;20.50;47.50
8188;DHT22;4135;49.184;9.722;2023-04-24T11:42:43;20.50;47.40
8188;DHT22;4135;49.184;9.722;2023-04-24T11:45:15;20.60;47.40
8188;DHT22;4135;49.184;9.722;2023-04-24T11:47:45;20.60;47.40
8188;DHT22;4135;49.184;9.722;2023-04-24T11:50:16;20.70;47.50
8188;DHT22;4135;49.184;9.722;2023-04-24T11:52:47;20.70;47.60
8188;DHT22;4135;49.184;9.722;2023-04-24T11:57:48;20.70;47.90
8188;DHT22;4135;49.184;9.722;2023-04-24T12:00:36;20.70;48.00
8188;DHT22;4135;49.184;9.722;2023-04-24T12:03:09;20.70;48.10
8188;DHT22;4135;49.184;9.722;2023-04-24T12:05:39;20.70;48.30
8188;DHT22;4135;49.184;9.722;2023-04-24T12:08:09;20.70;48.40
8188;DHT22;4135;49.184;9.722;2023-04-24T12:10:39;20.80;48.50
8188;DHT22;4135;49.184;9.722;2023-04-24T12:13:09;20.70;48.50
8188;DHT22;4135;49.184;9.722;2023-04-24T12:15:40;20.80;48.70
8188;DHT22;4135;49.184;9.722;2023-04-24T12:18:12;20.80;48.70
8188;DHT22;4135;49.184;9.722;2023-04-24T12:20:42;20.80;48.80
8188;DHT22;4135;49.184;9.722;2023-04-24T12:23:11;20.80;48.80
8188;DHT22;4135;49.184;9.722;2023-04-24T12:25:41;20.80;48.90
8188;DHT22;4135;49.184;9.722;2023-04-24T12:28:12;20.80;48.90
8188;DHT22;4135;49.184;9.722;2023-04-24T12:30:44;20.80;49.00
8188;DHT22;4135;49.184;9.722;2023-04-24T12:33:21;20.80;49.10
8188;DHT22;4135;49.184;9.722;2023-04-24T12:35:54;20.80;49.10
8188;DHT22;4135;49.184;9.722;2023-04-24T12:38:25;20.80;49.20
8188;DHT22;4135;49.184;9.722;2023-04-24T12:41:06;20.80;49.20
8188;DHT22;4135;49.184;9.722;2023-04-24T12:43:36;20.80;49.30
8188;DHT22;4135;49.184;9.722;2023-04-24T12:46:05;20.90;49.40
8188;DHT22;4135;49.184;9.722;2023-04-24T12:48:35;20.90;49.50
8188;DHT22;4135;49.184;9.722;2023-04-24T12:51:04;20.90;49.50
8188;DHT22;4135;49.184;9.722;2023-04-24T12:53:34;20.90;49.50
8188;DHT22;4135;49.184;9.722;2023-04-24T12:56:04;20.90;49.50
8188;DHT22;4135;49.184;9.722;2023-04-24T12:58:34;20.90;49.60
8188;DHT22;4135;49.184;9.722;2023-04-24T13:01:03;20.90;49.60
8188;DHT22;4135;49.184;9.722;2023-04-24T13:03:33;20.90;49.70
8188;DHT22;4135;49.184;9.722;2023-04-24T13:06:02;20.90;49.80
8188;DHT22;4135;49.184;9.722;2023-04-24T13:08:32;20.90;49.80
8188;DHT22;4135;49.184;9.722;2023-04-24T13:11:01;20.80;49.70
8188;DHT22;4135;49.184;9.722;2023-04-24T13:13:31;20.90;49.90
8188;DHT22;4135;49.184;9.722;2023-04-24T13:16:00;20.90;49.90
8188;DHT22;4135;49.184;9.722;2023-04-24T13:18:30;20.90;49.90
8188;DHT22;4135;49.184;9.722;2023-04-24T13:20:59;20.90;50.00
8188;DHT22;4135;49.184;9.722;2023-04-24T13:23:29;20.90;50.00
8188;DHT22;4135;49.184;9.722;2023-04-24T13:25:58;20.90;50.00
8188;DHT22;4135;49.184;9.722;2023-04-24T13:28:28;20.90;50.00
8188;DHT22;4135;49.184;9.722;2023-04-24T13:30:59;20.90;50.00
8188;DHT22;4135;49.184;9.722;2023-04-24T13:33:28;21.00;50.10
8188;DHT22;4135;49.184;9.722;2023-04-24T13:35:58;21.00;50.20
8188;DHT22;4135;49.184;9.722;2023-04-24T13:38:28;20.90;50.10
8188;DHT22;4135;49.184;9.722;2023-04-24T13:40:57;20.90;50.10
8188;DHT22;4135;49.184;9.722;2023-04-24T13:43:27;20.90;50.20
8188;DHT22;4135;49.184;9.722;2023-04-24T13:45:56;20.90;50.20
8188;DHT22;4135;49.184;9.722;2023-04-24T13:48:29;20.90;50.30
8188;DHT22;4135;49.184;9.722;2023-04-24T13:50:59;20.90;50.30
8188;DHT22;4135;49.184;9.722;2023-04-24T13:53:28;21.00;50.30
8188;DHT22;4135;49.184;9.722;2023-04-24T13:55:58;21.00;50.30
8188;DHT22;4135;49.184;9.722;2023-04-24T13:58:27;21.00;50.40
8188;DHT22;4135;49.184;9.722;2023-04-24T14:00:57;21.00;50.40
8188;DHT22;4135;49.184;9.722;2023-04-24T14:03:26;21.00;50.40
8188;DHT22;4135;49.184;9.722;2023-04-24T14:05:56;21.00;50.50
8188;DHT22;4135;49.184;9.722;2023-04-24T14:08:25;21.00;50.50
8188;DHT22;4135;49.184;9.722;2023-04-24T14:10:55;20.90;50.50
8188;DHT22;4135;49.184;9.722;2023-04-24T14:13:24;20.90;50.50
8188;DHT22;4135;49.184;9.722;2023-04-24T14:15:54;20.90;50.60
8188;DHT22;4135;49.184;9.722;2023-04-24T14:18:24;20.90;51.20
8188;DHT22;4135;49.184;9.722;2023-04-24T14:20:53;20.90;50.60
8188;DHT22;4135;49.184;9.722;2023-04-24T14:23:23;20.90;51.20
8188;DHT22;4135;49.184;9.722;2023-04-24T14:25:52;20.90;50.60
8188;DHT22;4135;49.184;9.722;2023-04-24T14:28:22;20.90;50.60
8188;DHT22;4135;49.184;9.722;2023-04-24T14:30:52;20.90;50.50
8188;DHT22;4135;49.184;9.722;2023-04-24T14:33:21;20.90;50.50
8188;DHT22;4135;49.184;9.722;2023-04-24T14:35:51;20.90;50.50
8188;DHT22;4135;49.184;9.722;2023-04-24T14:38:21;20.90;50.50
8188;DHT22;4135;49.184;9.722;2023-04-24T14:40:51;20.90;50.60
8188;DHT22;4135;49.184;9.722;2023-04-24T14:43:20;21.00;50.70
8188;DHT22;4135;49.184;9.722;2023-04-24T14:45:50;21.00;50.60
8188;DHT22;4135;49.184;9.722;2023-04-24T14:48:19;21.00;50.60
8188;DHT22;4135;49.184;9.722;2023-04-24T14:50:49;21.00;50.60
8188;DHT22;4135;49.184;9.722;2023-04-24T14:53:19;21.00;50.60
8188;DHT22;4135;49.184;9.722;2023-04-24T14:55:48;21.00;50.60
8188;DHT22;4135;49.184;9.722;2023-04-24T14:58:18;21.00;50.80
8188;DHT22;4135;49.184;9.722;2023-04-24T15:00:47;21.00;50.80
8188;DHT22;4135;49.184;9.722;2023-04-24T15:03:21;21.00;50.90
8188;DHT22;4135;49.184;9.722;2023-04-24T15:05:51;21.00;51.00
8188;DHT22;4135;49.184;9.722;2023-04-24T15:08:20;21.00;51.10
8188;DHT22;4135;49.184;9.722;2023-04-24T15:10:50;21.00;51.20
8188;DHT22;4135;49.184;9.722;2023-04-24T15:13:20;21.00;51.20
8188;DHT22;4135;49.184;9.722;2023-04-24T15:15:49;21.00;51.30
8188;DHT22;4135;49.184;9.722;2023-04-24T15:18:19;21.00;51.30
8188;DHT22;4135;49.184;9.722;2023-04-24T15:20:49;21.00;51.30
8188;DHT22;4135;49.184;9.722;2023-04-24T15:23:19;21.00;51.30
8188;DHT22;4135;49.184;9.722;2023-04-24T15:25:48;21.00;51.20
8188;DHT22;4135;49.184;9.722;2023-04-24T15:28:18;21.00;51.20
8188;DHT22;4135;49.184;9.722;2023-04-24T15:30:48;21.00;51.20
8188;DHT22;4135;49.184;9.722;2023-04-24T15:33:17;21.00;51.20
8188;DHT22;4135;49.184;9.722;2023-04-24T15:35:46;21.00;51.20
8188;DHT22;4135;49.184;9.722;2023-04-24T15:38:17;21.00;51.20
8188;DHT22;4135;49.184;9.722;2023-04-24T15:40:47;21.00;51.20
8188;DHT22;4135;49.184;9.722;2023-04-24T15:43:17;21.00;51.20
8188;DHT22;4135;49.184;9.722;2023-04-24T15:45:50;21.00;51.20
8188;DHT22;4135;49.184;9.722;2023-04-24T15:48:20;21.00;51.20
8188;DHT22;4135;49.184;9.722;2023-04-24T15:50:49;21.10;51.20
8188;DHT22;4135;49.184;9.722;2023-04-24T15:53:19;21.00;51.10
8188;DHT22;4135;49.184;9.722;2023-04-24T15:55:52;21.00;51.00
8188;DHT22;4135;49.184;9.722;2023-04-24T15:58:22;21.00;51.00
8188;DHT22;4135;49.184;9.722;2023-04-24T16:00:51;21.00;51.00
8188;DHT22;4135;49.184;9.722;2023-04-24T16:03:22;21.00;50.90
8188;DHT22;4135;49.184;9.722;2023-04-24T16:05:52;21.00;50.90
8188;DHT22;4135;49.184;9.722;2023-04-24T16:08:22;21.00;51.00
8188;DHT22;4135;49.184;9.722;2023-04-24T16:10:52;21.00;50.80
8188;DHT22;4135;49.184;9.722;2023-04-24T16:13:21;21.00;50.80
8188;DHT22;4135;49.184;9.722;2023-04-24T16:15:51;21.00;50.80
8188;DHT22;4135;49.184;9.722;2023-04-24T16:18:20;21.10;50.90
8188;DHT22;4135;49.184;9.722;2023-04-24T16:20:50;21.00;50.80
8188;DHT22;4135;49.184;9.722;2023-04-24T16:23:20;21.00;50.80
8188;DHT22;4135;49.184;9.722;2023-04-24T16:25:50;21.00;50.80
8188;DHT22;4135;49.184;9.722;2023-04-24T16:28:19;21.00;50.80
8188;DHT22;4135;49.184;9.722;2023-04-24T16:30:49;21.00;50.80
8188;DHT22;4135;49.184;9.722;2023-04-24T16:33:18;21.00;50.80
8188;DHT22;4135;49.184;9.722;2023-04-24T16:35:48;21.00;50.80
8188;DHT22;4135;49.184;9.722;2023-04-24T16:38:18;21.00;50.80
8188;DHT22;4135;49.184;9.722;2023-04-24T16:40:47;21.00;50.80